Time;durP1;ratioP1;P1;durP2;ratioP2;P2;SDS_P1;SDS_P2;PMS_P1;PMS_P2;Temp;Humidity;BMP_temperature;BMP_pressure;BME280_temperature;BME280_humidity;BME280_pressure;Samples;Min_cycle;Max_cycle;Signal;HPM_P1;HPM_P2
2021/09/16 00:01:38;;;;;;;8.48;3.38;;;18.10;99.90;;;;;;5068483;28;20084;-78
2021/09/16 00:04:05;;;;;;;8.98;3.60;;;18.00;99.90;;;;;;5076889;28;20046;-77
2021/09/16 00:06:32;;;;;;;8.63;3.88;;;18.00;99.90;;;;;;5070149;28;20537;-76
2021/09/16 00:08:57;;;;;;;6.35;3.20;;;18.00;99.90;;;;;;5072843;28;20063;-77
2021/09/16 00:11:23;;;;;;;10.15;3.80;;;18.00;99.90;;;;;;5070794;28;20037;-76
2021/09/16 00:13:49;;;;;;;7.93;3.80;;;17.90;99.90;;;;;;5068282;28;20028;-77
2021/09/16 00:16:15;;;;;;;12.15;3.90;;;17.90;99.90;;;;;;5071747;28;20396;-78
2021/09/16 00:18:40;;;;;;;7.47;3.90;;;17.90;99.90;;;;;;5064532;28;20032;-77
2021/09/16 00:21:06;;;;;;;5.68;3.53;;;17.90;99.90;;;;;;5070341;28;20487;-76
2021/09/16 00:23:32;;;;;;;7.43;3.95;;;17.90;99.90;;;;;;5067622;28;20067;-77
2021/09/16 00:25:57;;;;;;;7.75;4.00;;;17.80;99.90;;;;;;5064650;28;20076;-77
2021/09/16 00:28:23;;;;;;;5.85;3.42;;;17.80;99.90;;;;;;5069399;28;20032;-77
2021/09/16 00:30:49;;;;;;;6.30;3.22;;;17.80;99.90;;;;;;5066568;28;20047;-78
2021/09/16 00:33:15;;;;;;;8.90;3.83;;;17.80;99.90;;;;;;5065762;28;20078;-78
2021/09/16 00:35:41;;;;;;;9.55;3.78;;;17.70;99.90;;;;;;5065498;28;20029;-79
2021/09/16 00:38:07;;;;;;;9.73;3.72;;;17.60;99.90;;;;;;5074890;28;20031;-77
2021/09/16 00:40:33;;;;;;;7.60;3.65;;;17.60;99.90;;;;;;5066456;28;20095;-77
2021/09/16 00:42:59;;;;;;;9.98;3.90;;;17.60;99.90;;;;;;5070161;28;20139;-77
2021/09/16 00:45:24;;;;;;;8.65;3.85;;;17.60;99.90;;;;;;5065211;28;20039;-76
2021/09/16 00:47:51;;;;;;;6.22;3.22;;;17.60;99.90;;;;;;5049142;28;20036;-77
2021/09/16 00:50:22;;;;;;;7.25;3.47;;;17.50;99.90;;;;;;5065304;28;20469;-76
2021/09/16 00:52:48;;;;;;;11.93;3.83;;;17.50;99.90;;;;;;5068980;28;20388;-76
2021/09/16 00:55:15;;;;;;;8.48;3.42;;;17.40;99.90;;;;;;5070338;28;20017;-76
2021/09/16 00:57:45;;;;;;;6.00;2.58;;;17.40;99.90;;;;;;5070886;28;20028;-76
2021/09/16 01:00:11;;;;;;;13.50;3.10;;;17.40;99.90;;;;;;5063917;28;20071;-77
2021/09/16 01:02:37;;;;;;;7.05;2.95;;;17.40;99.90;;;;;;5067965;28;20069;-77
2021/09/16 01:05:04;;;;;;;10.93;3.03;;;17.40;99.90;;;;;;5068898;28;20380;-77
2021/09/16 01:07:30;;;;;;;7.55;2.65;;;17.30;99.90;;;;;;5062721;28;20050;-77
2021/09/16 01:09:59;;;;;;;6.90;3.30;;;17.30;99.90;;;;;;5071962;28;20055;-76
2021/09/16 01:12:26;;;;;;;4.07;2.65;;;17.30;99.90;;;;;;5068555;28;20039;-77
2021/09/16 01:14:51;;;;;;;6.68;3.22;;;17.30;99.90;;;;;;5072804;28;20028;-76
2021/09/16 01:17:17;;;;;;;8.32;3.10;;;17.30;99.90;;;;;;5068792;28;20744;-76
2021/09/16 01:19:43;;;;;;;9.60;2.80;;;17.30;99.90;;;;;;5072570;28;21058;-76
2021/09/16 01:22:20;;;;;;;7.07;2.75;;;17.30;99.90;;;;;;5066737;28;20129;-76
2021/09/16 01:24:46;;;;;;;7.22;2.67;;;17.20;99.90;;;;;;5063416;28;20602;-76
2021/09/16 01:27:12;;;;;;;6.80;3.10;;;17.20;99.90;;;;;;5064994;28;20399;-77
2021/09/16 01:29:38;;;;;;;7.55;3.30;;;17.10;99.90;;;;;;5074235;28;20020;-77
2021/09/16 01:32:06;;;;;;;5.07;2.90;;;17.10;99.90;;;;;;5068221;28;20079;-77
2021/09/16 01:34:32;;;;;;;8.93;2.83;;;17.10;99.90;;;;;;5070407;28;20359;-77
2021/09/16 01:36:57;;;;;;;9.13;3.05;;;17.10;99.90;;;;;;5066330;28;20483;-77
2021/09/16 01:39:25;;;;;;;4.45;2.60;;;17.10;99.90;;;;;;5067108;28;20385;-76
2021/09/16 01:41:51;;;;;;;5.60;3.70;;;17.00;99.90;;;;;;5064508;28;20017;-76
2021/09/16 01:44:17;;;;;;;7.05;3.03;;;17.00;99.90;;;;;;5066591;28;20024;-77
2021/09/16 01:46:43;;;;;;;5.53;3.13;;;17.00;99.90;;;;;;5063010;28;20177;-77
2021/09/16 01:49:10;;;;;;;6.95;3.20;;;17.00;99.90;;;;;;5066179;28;20032;-77
2021/09/16 01:51:36;;;;;;;5.82;3.05;;;16.90;99.90;;;;;;5067857;28;20041;-77
2021/09/16 01:54:05;;;;;;;4.00;2.47;;;16.90;99.90;;;;;;5067091;28;20074;-76
2021/09/16 01:56:31;;;;;;;8.82;3.35;;;16.90;99.90;;;;;;5069708;28;20024;-76
2021/09/16 01:58:57;;;;;;;10.50;2.95;;;16.80;99.90;;;;;;5069813;28;20021;-76
2021/09/16 02:01:22;;;;;;;5.78;3.03;;;16.80;99.90;;;;;;5071651;28;20024;-76
2021/09/16 02:03:49;;;;;;;6.57;3.17;;;16.80;99.90;;;;;;5062696;28;20029;-76
2021/09/16 02:06:15;;;;;;;8.30;2.80;;;16.80;99.90;;;;;;5064970;28;20020;-77
2021/09/16 02:08:41;;;;;;;4.35;3.00;;;16.80;99.90;;;;;;5063805;28;20055;-77
2021/09/16 02:11:07;;;;;;;7.10;3.53;;;16.70;99.90;;;;;;5070982;28;20039;-77
2021/09/16 02:13:32;;;;;;;6.50;3.03;;;16.70;99.90;;;;;;5062215;28;20032;-77
2021/09/16 02:15:58;;;;;;;4.30;3.03;;;16.70;99.90;;;;;;5068963;28;20021;-77
2021/09/16 02:18:24;;;;;;;5.13;3.20;;;16.70;99.90;;;;;;5061942;28;20216;-77
2021/09/16 02:20:49;;;;;;;5.95;3.30;;;16.70;99.90;;;;;;5075488;28;20107;-76
2021/09/16 02:23:15;;;;;;;9.68;3.17;;;16.60;99.90;;;;;;5063078;28;20465;-76
2021/09/16 02:25:41;;;;;;;7.22;3.67;;;16.60;99.90;;;;;;5063182;28;20040;-76
2021/09/16 02:28:07;;;;;;;7.90;3.83;;;16.60;99.90;;;;;;5065973;28;20036;-77
2021/09/16 02:30:32;;;;;;;7.13;3.78;;;16.60;99.90;;;;;;5065241;28;20025;-76
2021/09/16 02:33:00;;;;;;;8.68;4.32;;;16.60;99.90;;;;;;5067370;28;20108;-77
2021/09/16 02:35:26;;;;;;;7.72;4.03;;;16.60;99.90;;;;;;5066956;28;20025;-77
2021/09/16 02:37:51;;;;;;;10.93;4.35;;;16.60;99.90;;;;;;5073217;28;20073;-77
2021/09/16 02:40:17;;;;;;;9.23;4.35;;;16.60;99.90;;;;;;5073407;28;20027;-77
2021/09/16 02:42:43;;;;;;;11.80;4.18;;;16.50;99.90;;;;;;5071166;28;20036;-77
2021/09/16 02:45:09;;;;;;;7.45;4.55;;;16.50;99.90;;;;;;5071569;28;20048;-77
2021/09/16 02:47:35;;;;;;;7.38;3.97;;;16.50;99.90;;;;;;5073255;28;20032;-77
2021/09/16 02:50:00;;;;;;;7.65;4.20;;;16.50;99.90;;;;;;5067240;28;20166;-77
2021/09/16 02:52:26;;;;;;;8.20;3.90;;;16.50;99.90;;;;;;5075776;28;20028;-77
2021/09/16 02:54:52;;;;;;;6.30;3.83;;;16.40;99.90;;;;;;5070135;28;20028;-77
2021/09/16 02:57:17;;;;;;;7.28;4.72;;;16.40;99.90;;;;;;5077084;28;20482;-77
2021/09/16 02:59:43;;;;;;;4.97;4.07;;;16.50;99.90;;;;;;5067428;28;20025;-77
2021/09/16 03:02:09;;;;;;;14.13;5.07;;;16.40;99.90;;;;;;5068127;28;20426;-77
2021/09/16 03:04:35;;;;;;;8.77;4.78;;;16.40;99.90;;;;;;5079550;28;20385;-77
2021/09/16 03:07:01;;;;;;;5.70;4.60;;;16.40;99.90;;;;;;5074439;28;20024;-77
2021/09/16 03:09:27;;;;;;;12.07;5.32;;;16.30;99.90;;;;;;5079685;28;20032;-77
2021/09/16 03:11:53;;;;;;;7.03;4.63;;;16.30;99.90;;;;;;5077963;28;20172;-76
2021/09/16 03:14:18;;;;;;;9.73;4.93;;;16.20;99.90;;;;;;5074905;28;20024;-77
2021/09/16 03:16:44;;;;;;;7.40;4.45;;;16.20;99.90;;;;;;5081144;28;20024;-77
2021/09/16 03:19:10;;;;;;;8.85;5.03;;;16.20;99.90;;;;;;5076483;28;20028;-76
2021/09/16 03:21:35;;;;;;;9.27;4.88;;;16.30;99.90;;;;;;5076035;28;20115;-76
2021/09/16 03:24:01;;;;;;;11.55;4.72;;;16.30;99.90;;;;;;5070013;28;20016;-76
2021/09/16 03:26:27;;;;;;;8.93;5.82;;;16.30;99.90;;;;;;5073613;28;20093;-76
2021/09/16 03:28:53;;;;;;;8.55;5.13;;;16.30;99.90;;;;;;5076019;28;20016;-76
2021/09/16 03:31:18;;;;;;;12.32;6.03;;;16.30;99.90;;;;;;5078092;28;20071;-76
2021/09/16 03:33:45;;;;;;;15.63;6.03;;;16.30;99.90;;;;;;5078435;28;20028;-76
2021/09/16 03:36:11;;;;;;;9.75;5.68;;;16.30;99.90;;;;;;5075448;28;20043;-76
2021/09/16 03:38:36;;;;;;;11.65;6.30;;;16.30;99.90;;;;;;5077919;28;20051;-76
2021/09/16 03:41:02;;;;;;;10.35;6.57;;;16.30;99.90;;;;;;5080314;28;20487;-76
2021/09/16 03:43:28;;;;;;;12.57;6.97;;;16.30;99.90;;;;;;5067142;28;20017;-77
2021/09/16 03:45:54;;;;;;;12.07;7.13;;;16.30;99.90;;;;;;5076200;28;20035;-77
2021/09/16 03:48:20;;;;;;;12.85;7.97;;;16.30;99.90;;;;;;5072470;28;20029;-76
2021/09/16 03:50:46;;;;;;;15.18;7.60;;;16.20;99.90;;;;;;5081556;28;20404;-76
2021/09/16 03:53:12;;;;;;;14.32;8.00;;;16.20;99.90;;;;;;5073160;28;20024;-76
2021/09/16 03:55:38;;;;;;;12.95;9.02;;;16.20;99.90;;;;;;5079595;28;20035;-77
2021/09/16 03:58:04;;;;;;;15.10;8.57;;;16.20;99.90;;;;;;5081091;28;20028;-77
2021/09/16 04:00:29;;;;;;;16.52;9.25;;;16.10;99.90;;;;;;5074068;28;20473;-77
2021/09/16 04:02:55;;;;;;;20.60;9.38;;;16.10;99.90;;;;;;5070225;28;20037;-77
2021/09/16 04:05:21;;;;;;;15.23;9.85;;;16.10;99.90;;;;;;5073126;28;20497;-77
2021/09/16 04:07:46;;;;;;;17.45;9.90;;;16.10;99.90;;;;;;5078476;28;20118;-77
2021/09/16 04:10:12;;;;;;;16.70;10.32;;;16.10;99.90;;;;;;5079950;28;20500;-77
2021/09/16 04:12:38;;;;;;;19.27;10.35;;;16.10;99.90;;;;;;5077671;28;20528;-77
2021/09/16 04:15:05;;;;;;;16.23;10.25;;;16.10;99.90;;;;;;5079248;28;20032;-77
2021/09/16 04:17:31;;;;;;;23.25;11.85;;;16.00;99.90;;;;;;5076533;28;20468;-77
2021/09/16 04:19:56;;;;;;;18.63;11.50;;;16.10;99.90;;;;;;5079511;28;20110;-76
2021/09/16 04:22:22;;;;;;;23.48;12.57;;;16.10;99.90;;;;;;5072145;28;20012;-77
2021/09/16 04:24:48;;;;;;;18.77;12.68;;;16.00;99.90;;;;;;5065146;28;20048;-77
2021/09/16 04:27:13;;;;;;;26.42;12.90;;;16.00;99.90;;;;;;5075819;28;20025;-77
2021/09/16 04:29:41;;;;;;;22.45;12.45;;;16.00;99.90;;;;;;5073097;28;20043;-77
2021/09/16 04:32:07;;;;;;;21.10;13.52;;;16.00;99.90;;;;;;5066103;28;20031;-76
2021/09/16 04:34:33;;;;;;;27.05;13.27;;;16.00;99.90;;;;;;5073973;28;20024;-77
2021/09/16 04:36:59;;;;;;;21.08;13.10;;;16.00;99.90;;;;;;5076843;28;20032;-77
2021/09/16 04:39:24;;;;;;;21.38;12.95;;;16.00;99.90;;;;;;5073022;28;20484;-77
2021/09/16 04:41:50;;;;;;;19.40;12.70;;;16.00;99.90;;;;;;5075344;28;20031;-77
2021/09/16 04:44:16;;;;;;;21.50;13.60;;;16.00;99.90;;;;;;5072497;28;20024;-77
2021/09/16 04:46:41;;;;;;;22.23;13.80;;;16.00;99.90;;;;;;5076469;28;20375;-77
2021/09/16 04:49:07;;;;;;;23.92;13.32;;;15.90;99.90;;;;;;5078733;28;20020;-77
2021/09/16 04:51:33;;;;;;;23.95;13.05;;;16.00;99.90;;;;;;5076641;28;20036;-77
2021/09/16 04:53:59;;;;;;;21.08;13.15;;;15.90;99.90;;;;;;5067478;28;20045;-77
2021/09/16 04:56:24;;;;;;;25.50;13.77;;;15.90;99.90;;;;;;5079890;28;20033;-77
2021/09/16 04:58:50;;;;;;;26.17;13.48;;;15.90;99.90;;;;;;5073127;28;20033;-77
2021/09/16 05:01:16;;;;;;;23.95;14.52;;;15.90;99.90;;;;;;5075851;28;20106;-77
2021/09/16 05:03:42;;;;;;;22.30;14.00;;;15.90;99.90;;;;;;5069807;28;20078;-77
2021/09/16 05:06:08;;;;;;;27.65;14.85;;;15.90;99.90;;;;;;5066750;28;20564;-77
2021/09/16 05:08:33;;;;;;;21.63;13.68;;;15.90;99.90;;;;;;5069064;28;20029;-77
2021/09/16 05:10:59;;;;;;;22.38;13.90;;;15.80;99.90;;;;;;5077749;28;20530;-77
2021/09/16 05:13:25;;;;;;;24.63;15.27;;;15.80;99.90;;;;;;5076395;28;20032;-77
2021/09/16 05:15:51;;;;;;;26.73;15.43;;;15.80;99.90;;;;;;5069999;28;20024;-77
2021/09/16 05:18:17;;;;;;;23.52;13.15;;;15.80;99.90;;;;;;5074878;28;20029;-77
2021/09/16 05:20:42;;;;;;;23.48;14.43;;;15.80;99.90;;;;;;5070452;28;20024;-77
2021/09/16 05:23:08;;;;;;;25.40;14.13;;;15.80;99.90;;;;;;5076048;28;20017;-77
2021/09/16 05:25:34;;;;;;;23.83;14.27;;;15.80;99.90;;;;;;5071235;28;20048;-76
2021/09/16 05:28:00;;;;;;;23.58;15.32;;;15.80;99.90;;;;;;5070381;28;20111;-76
2021/09/16 05:30:26;;;;;;;29.30;15.43;;;15.80;99.90;;;;;;5076106;28;20040;-77
2021/09/16 05:32:52;;;;;;;27.27;14.80;;;15.80;99.90;;;;;;5079616;28;20107;-77
2021/09/16 05:35:18;;;;;;;23.17;14.23;;;15.70;99.90;;;;;;5070948;28;20422;-76
2021/09/16 05:37:44;;;;;;;23.55;14.95;;;15.80;99.90;;;;;;5074878;28;20055;-76
2021/09/16 05:40:11;;;;;;;24.35;15.15;;;15.80;99.90;;;;;;5076121;28;20465;-77
2021/09/16 05:42:37;;;;;;;26.00;15.25;;;15.80;99.90;;;;;;5069088;28;20081;-77
2021/09/16 05:45:08;;;;;;;26.92;15.75;;;15.80;99.90;;;;;;5073659;28;20016;-76
2021/09/16 05:47:33;;;;;;;25.33;15.10;;;15.80;99.90;;;;;;5073155;28;20534;-76
2021/09/16 05:50:00;;;;;;;31.77;16.15;;;15.70;99.90;;;;;;5073544;28;20032;-76
2021/09/16 05:52:26;;;;;;;23.10;14.65;;;15.70;99.90;;;;;;5077754;28;20666;-76
2021/09/16 05:54:52;;;;;;;26.60;15.50;;;15.70;99.90;;;;;;5070924;28;20100;-76
2021/09/16 05:57:18;;;;;;;27.92;16.65;;;15.70;99.90;;;;;;5075262;28;20043;-76
2021/09/16 05:59:43;;;;;;;23.05;15.23;;;15.70;99.90;;;;;;5076213;28;20028;-74
2021/09/16 06:02:09;;;;;;;23.13;15.65;;;15.70;99.90;;;;;;5066259;28;20381;-77
2021/09/16 06:04:35;;;;;;;21.75;15.13;;;15.70;99.90;;;;;;5072946;28;20445;-77
2021/09/16 06:07:03;;;;;;;26.88;17.40;;;15.80;99.90;;;;;;5068597;28;20021;-77
2021/09/16 06:09:32;;;;;;;23.73;15.80;;;15.70;99.90;;;;;;5077633;28;20078;-76
2021/09/16 06:12:03;;;;;;;27.52;17.02;;;15.80;99.90;;;;;;5074924;28;20089;-76
2021/09/16 06:14:32;;;;;;;29.95;16.02;;;15.80;99.90;;;;;;5080426;28;20077;-77
2021/09/16 06:16:58;;;;;;;25.63;16.20;;;15.80;99.90;;;;;;5076369;28;20350;-77
2021/09/16 06:19:24;;;;;;;27.35;16.15;;;15.90;99.90;;;;;;5073202;28;20041;-75
2021/09/16 06:21:51;;;;;;;31.35;16.80;;;15.90;99.90;;;;;;5066071;28;20492;-76
2021/09/16 06:24:17;;;;;;;26.80;16.33;;;15.90;99.90;;;;;;5074452;28;20020;-75
2021/09/16 06:26:42;;;;;;;28.60;16.48;;;15.90;99.90;;;;;;5079582;28;20499;-76
2021/09/16 06:29:10;;;;;;;26.85;17.02;;;15.90;99.90;;;;;;5071820;28;20036;-76
2021/09/16 06:31:36;;;;;;;26.92;15.98;;;15.90;99.90;;;;;;5075583;28;20028;-76
2021/09/16 06:34:01;;;;;;;30.75;16.67;;;15.90;99.90;;;;;;5072621;28;20056;-75
2021/09/16 06:36:27;;;;;;;31.60;17.55;;;15.90;99.90;;;;;;5070394;28;20046;-76
2021/09/16 06:38:53;;;;;;;25.17;16.20;;;16.00;99.90;;;;;;5075537;28;20369;-76
2021/09/16 06:41:19;;;;;;;30.88;16.45;;;15.90;99.90;;;;;;5072922;28;20071;-75
2021/09/16 06:43:44;;;;;;;29.65;17.70;;;15.90;99.90;;;;;;5077595;28;20024;-76
2021/09/16 06:46:11;;;;;;;28.65;17.23;;;15.90;99.90;;;;;;5079041;28;20029;-75
2021/09/16 06:48:37;;;;;;;27.83;16.27;;;16.00;99.90;;;;;;5075390;28;20083;-76
2021/09/16 06:51:03;;;;;;;33.20;17.08;;;16.00;99.90;;;;;;5074040;28;20167;-75
2021/09/16 06:53:29;;;;;;;27.85;16.60;;;16.00;99.90;;;;;;5062724;28;20024;-76
2021/09/16 06:55:55;;;;;;;25.58;16.65;;;16.10;99.90;;;;;;5071389;28;20036;-75
2021/09/16 06:58:21;;;;;;;26.98;16.38;;;16.10;99.90;;;;;;5074490;28;20392;-75
2021/09/16 07:00:47;;;;;;;24.48;16.38;;;16.10;99.90;;;;;;5082901;28;20035;-75
2021/09/16 07:03:12;;;;;;;30.92;17.15;;;16.10;99.90;;;;;;5071563;28;20082;-75
2021/09/16 07:05:38;;;;;;;26.15;15.80;;;16.10;99.90;;;;;;5073488;28;20423;-75
2021/09/16 07:08:04;;;;;;;28.48;15.55;;;16.10;99.90;;;;;;5075192;28;20028;-76
2021/09/16 07:10:30;;;;;;;27.42;16.40;;;16.20;99.90;;;;;;5078715;28;20035;-76
2021/09/16 07:12:56;;;;;;;30.38;15.77;;;16.20;99.90;;;;;;5078984;28;20133;-75
2021/09/16 07:15:21;;;;;;;25.20;15.57;;;16.30;99.90;;;;;;5080861;28;20532;-75
2021/09/16 07:17:47;;;;;;;23.08;14.52;;;16.20;99.90;;;;;;5074504;28;20027;-75
2021/09/16 07:20:13;;;;;;;22.00;14.68;;;16.30;99.90;;;;;;5068076;28;20017;-75
2021/09/16 07:22:39;;;;;;;25.65;16.30;;;16.30;99.90;;;;;;5075518;28;20087;-77
2021/09/16 07:25:07;;;;;;;18.00;12.43;;;16.40;99.90;;;;;;5063565;28;20534;-76
2021/09/16 07:27:33;;;;;;;24.70;14.63;;;16.40;99.90;;;;;;5067288;28;20031;-76
2021/09/16 07:29:59;;;;;;;29.48;14.57;;;16.50;99.90;;;;;;5068368;28;20017;-75
2021/09/16 07:32:25;;;;;;;24.00;14.32;;;16.50;99.90;;;;;;5071988;28;20532;-75
2021/09/16 07:34:51;;;;;;;24.45;14.02;;;16.50;99.90;;;;;;5072681;28;20076;-75
2021/09/16 07:37:17;;;;;;;25.33;13.60;;;16.60;99.90;;;;;;5065851;28;20386;-75
2021/09/16 07:39:43;;;;;;;21.42;13.48;;;16.60;99.90;;;;;;5075979;28;20086;-75
2021/09/16 07:42:09;;;;;;;27.30;13.23;;;16.60;99.90;;;;;;5066596;28;20139;-75
2021/09/16 07:44:34;;;;;;;20.30;12.25;;;16.70;99.90;;;;;;5023799;28;20934;-75
2021/09/16 07:47:00;;;;;;;21.92;13.10;;;16.70;99.90;;;;;;5067109;28;20048;-75
2021/09/16 07:49:26;;;;;;;18.58;11.23;;;16.80;99.90;;;;;;5067246;28;20481;-75
2021/09/16 07:51:52;;;;;;;16.23;10.00;;;16.90;99.90;;;;;;5068185;28;20518;-75
2021/09/16 07:54:17;;;;;;;16.75;8.93;;;16.90;99.90;;;;;;5059244;28;20021;-75
2021/09/16 07:56:43;;;;;;;17.50;7.57;;;16.90;99.90;;;;;;5069862;28;20028;-75
2021/09/16 07:59:18;;;;;;;15.00;7.40;;;17.00;99.90;;;;;;5067128;28;20572;-77
2021/09/16 08:01:44;;;;;;;11.95;6.40;;;17.10;99.90;;;;;;5067698;28;20017;-76
2021/09/16 08:04:10;;;;;;;13.23;6.95;;;17.20;99.90;;;;;;5070196;28;20499;-76
2021/09/16 08:06:36;;;;;;;11.65;5.75;;;17.20;99.90;;;;;;5067307;28;20104;-76
2021/09/16 08:09:02;;;;;;;18.98;6.93;;;17.20;99.90;;;;;;5066383;28;20438;-76
2021/09/16 08:11:29;;;;;;;11.80;6.50;;;17.30;99.90;;;;;;5066229;28;20040;-76
2021/09/16 08:13:55;;;;;;;10.75;5.60;;;17.40;99.90;;;;;;5073415;28;20098;-77
2021/09/16 08:16:22;;;;;;;10.52;5.80;;;17.50;99.90;;;;;;5071956;28;20067;-76
2021/09/16 08:18:48;;;;;;;11.82;5.97;;;17.50;99.90;;;;;;5077449;28;20024;-77
2021/09/16 08:21:15;;;;;;;8.18;5.13;;;17.50;99.90;;;;;;5074025;28;20103;-77
2021/09/16 08:23:42;;;;;;;13.68;5.43;;;17.60;99.90;;;;;;5074203;28;20016;-75
2021/09/16 08:26:08;;;;;;;11.32;5.43;;;17.80;99.90;;;;;;5072589;28;20028;-76
2021/09/16 08:28:34;;;;;;;9.57;5.15;;;17.90;99.90;;;;;;5072498;28;20025;-76
2021/09/16 08:31:03;;;;;;;9.52;4.57;;;17.90;99.90;;;;;;5026523;28;21294;-77
2021/09/16 08:33:29;;;;;;;8.27;5.35;;;17.90;99.90;;;;;;5062691;28;20021;-77
2021/09/16 08:35:55;;;;;;;7.30;3.95;;;18.00;99.90;;;;;;5068897;28;20043;-76
2021/09/16 08:38:21;;;;;;;11.98;4.68;;;18.10;99.90;;;;;;5066083;28;20051;-76
2021/09/16 08:40:47;;;;;;;8.23;4.45;;;18.10;99.90;;;;;;5072941;28;20052;-76
2021/09/16 08:43:13;;;;;;;6.70;3.95;;;18.10;99.90;;;;;;5072987;28;20031;-77
2021/09/16 08:45:40;;;;;;;7.30;3.75;;;18.30;99.90;;;;;;5063113;28;20032;-76
2021/09/16 08:48:07;;;;;;;6.35;3.60;;;18.40;99.90;;;;;;5069757;28;20033;-77
2021/09/16 08:50:33;;;;;;;5.97;3.22;;;18.30;99.90;;;;;;5071148;28;20071;-77
2021/09/16 08:53:02;;;;;;;10.02;3.25;;;18.30;99.90;;;;;;5069562;28;20017;-77
2021/09/16 08:55:28;;;;;;;8.32;3.45;;;18.40;99.90;;;;;;5076441;28;20244;-76
2021/09/16 08:57:59;;;;;;;9.80;4.65;;;18.50;99.90;;;;;;5079655;28;20016;-76
2021/09/16 09:00:26;;;;;;;7.55;3.78;;;18.40;99.90;;;;;;5076069;28;20040;-74
2021/09/16 09:02:53;;;;;;;8.68;3.65;;;18.40;99.90;;;;;;5075297;28;20036;-77
2021/09/16 09:05:20;;;;;;;6.43;2.78;;;18.40;99.90;;;;;;5073874;28;20052;-76
2021/09/16 09:07:52;;;;;;;5.82;3.17;;;18.50;99.90;;;;;;5080393;28;20029;-77
2021/09/16 09:10:41;;;;;;;6.47;2.67;;;18.60;99.90;;;;;;5074440;28;20178;-75
2021/09/16 09:13:18;;;;;;;14.50;3.95;;;18.80;99.90;;;;;;5072498;28;20307;-75
2021/09/16 09:15:48;;;;;;;7.85;4.00;;;18.90;99.90;;;;;;5070191;28;20073;-76
2021/09/16 09:18:16;;;;;;;4.47;3.00;;;19.00;99.90;;;;;;5067586;28;20021;-77
2021/09/16 09:20:53;;;;;;;3.92;2.40;;;19.10;99.90;;;;;;5074268;28;20028;-77
2021/09/16 09:23:29;;;;;;;4.03;2.65;;;19.10;99.90;;;;;;5077955;28;20130;-77
2021/09/16 09:25:56;;;;;;;8.10;3.03;;;19.10;99.90;;;;;;5071956;28;20112;-78
2021/09/16 09:28:34;;;;;;;7.55;3.20;;;19.20;99.90;;;;;;5062915;28;20473;-77
2021/09/16 09:31:13;;;;;;;9.55;3.30;;;19.20;99.90;;;;;;5062817;28;20085;-77
2021/09/16 09:33:40;;;;;;;3.70;3.28;;;19.20;99.90;;;;;;5073486;28;20045;-78
2021/09/16 09:36:21;;;;;;;6.32;2.83;;;19.20;99.90;;;;;;5076371;28;20028;-77
2021/09/16 09:38:57;;;;;;;9.43;3.10;;;19.10;99.90;;;;;;5072760;28;20016;-77
2021/09/16 09:41:35;;;;;;;6.15;3.13;;;19.30;99.90;;;;;;5084933;28;20036;-78
2021/09/16 09:44:12;;;;;;;5.97;3.60;;;19.60;99.90;;;;;;5070075;28;20103;-77
2021/09/16 09:46:41;;;;;;;7.28;4.38;;;20.00;99.90;;;;;;5070121;28;20465;-78
2021/09/16 09:49:10;;;;;;;7.95;3.78;;;19.90;99.90;;;;;;5074166;28;20021;-78
2021/09/16 09:51:51;;;;;;;8.00;3.30;;;19.90;99.90;;;;;;5070620;28;20041;-78
2021/09/16 09:54:38;;;;;;;5.00;3.60;;;19.70;99.90;;;;;;5059532;28;20024;-78
2021/09/16 09:57:07;;;;;;;7.10;3.42;;;19.80;99.90;;;;;;5073928;28;20047;-79
2021/09/16 09:59:56;;;;;;;6.00;3.20;;;20.10;99.90;;;;;;5075184;28;20083;-77
2021/09/16 10:02:53;;;;;;;7.13;3.28;;;20.30;99.90;;;;;;5064907;28;20025;-79
2021/09/16 10:05:28;;;;;;;7.50;2.95;;;20.30;99.90;;;;;;5076007;28;20037;-79
2021/09/16 10:08:09;;;;;;;6.75;3.35;;;20.50;99.90;;;;;;5074497;28;20091;-78
2021/09/16 10:10:42;;;;;;;3.92;3.35;;;20.50;99.90;;;;;;5069906;28;20045;-78
2021/09/16 10:13:11;;;;;;;4.95;3.53;;;20.80;99.90;;;;;;5072885;28;20024;-78
2021/09/16 10:15:37;;;;;;;4.65;3.30;;;20.90;99.90;;;;;;5073223;28;20028;-78
2021/09/16 10:18:03;;;;;;;5.13;2.95;;;20.80;99.90;;;;;;5064941;28;20024;-78
2021/09/16 10:20:29;;;;;;;6.43;3.20;;;20.70;99.90;;;;;;5073390;28;20502;-79
2021/09/16 10:23:00;;;;;;;4.07;3.47;;;20.80;99.90;;;;;;5073183;28;20029;-79
2021/09/16 10:25:28;;;;;;;5.82;3.00;;;20.90;99.90;;;;;;5071237;28;20032;-79
2021/09/16 10:28:03;;;;;;;4.70;3.05;;;21.10;99.90;;;;;;5068870;28;20477;-78
2021/09/16 10:30:36;;;;;;;4.38;3.88;;;21.30;99.90;;;;;;5072545;28;20021;-78
2021/09/16 10:33:22;;;;;;;3.88;2.78;;;21.40;99.90;;;;;;5073361;28;20162;-78
2021/09/16 10:36:08;;;;;;;4.88;2.60;;;21.50;99.90;;;;;;5070766;28;20020;-77
2021/09/16 10:38:39;;;;;;;4.32;2.10;;;21.70;99.90;;;;;;5068001;28;20021;-78
2021/09/16 10:41:21;;;;;;;3.22;2.17;;;21.80;99.90;;;;;;5070592;28;20017;-79
2021/09/16 10:43:53;;;;;;;;;;;21.90;99.90;;;;;;5067599;28;20036;-78
2021/09/16 10:46:23;;;;;;;6.03;1.80;;;21.90;99.90;;;;;;5073628;28;19908;-78
2021/09/16 10:48:49;;;;;;;3.85;2.08;;;22.00;99.90;;;;;;5072026;28;20031;-78
2021/09/16 10:51:42;;;;;;;3.75;1.55;;;22.10;99.90;;;;;;5076002;28;20551;-79
2021/09/16 10:54:23;;;;;;;4.83;2.00;;;22.10;99.90;;;;;;5071703;28;20026;-78
2021/09/16 10:57:11;;;;;;;2.95;1.58;;;22.10;99.90;;;;;;5065592;28;20290;-79
2021/09/16 10:59:57;;;;;;;6.53;2.20;;;22.20;99.90;;;;;;5063439;28;20028;-79
2021/09/16 11:02:40;;;;;;;4.32;2.25;;;22.20;99.90;;;;;;5054181;28;20033;-78
2021/09/16 11:05:10;;;;;;;2.92;1.60;;;22.20;99.90;;;;;;5066878;28;20031;-78
2021/09/16 11:07:37;;;;;;;3.60;1.67;;;21.90;99.90;;;;;;5067542;28;20075;-78
2021/09/16 11:10:15;;;;;;;2.45;1.40;;;22.10;99.90;;;;;;5061573;28;20600;-78
2021/09/16 11:12:45;;;;;;;5.22;1.65;;;22.20;99.90;;;;;;5068702;28;20041;-78
2021/09/16 11:15:12;;;;;;;4.55;1.67;;;22.20;99.90;;;;;;5067394;28;20036;-79
2021/09/16 11:17:40;;;;;;;3.85;1.67;;;22.30;99.90;;;;;;5051411;28;20503;-80
2021/09/16 11:20:08;;;;;;;6.20;1.70;;;22.30;99.90;;;;;;5045561;28;20512;-79
2021/09/16 11:22:34;;;;;;;3.45;1.38;;;22.30;99.90;;;;;;5046810;28;20040;-79
2021/09/16 11:25:00;;;;;;;2.90;1.08;;;22.40;99.90;;;;;;5064803;28;20029;-79
2021/09/16 11:27:41;;;;;;;1.92;1.10;;;22.20;99.90;;;;;;5067028;28;20036;-78
2021/09/16 11:30:21;;;;;;;3.63;1.30;;;22.20;99.90;;;;;;5065027;28;20157;-79
2021/09/16 11:32:48;;;;;;;3.63;1.30;;;22.30;99.90;;;;;;5073882;28;20384;-78
2021/09/16 11:35:16;;;;;;;3.53;1.40;;;22.30;99.90;;;;;;5070191;28;20029;-79
2021/09/16 11:37:50;;;;;;;4.28;1.48;;;22.40;99.90;;;;;;5063837;28;20031;-78
2021/09/16 11:40:25;;;;;;;2.80;1.10;;;22.40;99.90;;;;;;5071074;28;20033;-78
2021/09/16 11:42:54;;;;;;;3.53;1.30;;;22.60;99.90;;;;;;5070377;28;20110;-78
2021/09/16 11:45:22;;;;;;;2.15;1.02;;;22.60;99.90;;;;;;5071416;28;20027;-79
2021/09/16 11:48:00;;;;;;;2.20;1.15;;;22.50;99.90;;;;;;5074015;28;20020;-79
2021/09/16 11:50:31;;;;;;;3.33;1.30;;;22.60;99.90;;;;;;5065175;28;20044;-79
2021/09/16 11:53:04;;;;;;;3.30;1.48;;;22.70;99.90;;;;;;5076819;28;20041;-78
2021/09/16 11:55:39;;;;;;;2.22;1.30;;;22.80;99.90;;;;;;5078394;28;20024;-78
2021/09/16 11:58:09;;;;;;;2.80;1.50;;;22.90;99.90;;;;;;5079432;28;20024;-79
2021/09/16 12:00:48;;;;;;;2.75;1.40;;;23.10;99.90;;;;;;5069656;28;20150;-78
2021/09/16 12:03:19;;;;;;;3.13;1.60;;;22.90;99.90;;;;;;5067890;28;20029;-79
2021/09/16 12:05:47;;;;;;;5.45;1.70;;;22.70;99.90;;;;;;5053766;28;20012;-79
2021/09/16 12:08:41;;;;;;;3.22;2.05;;;22.80;99.90;;;;;;5064036;28;20051;-78
2021/09/16 12:11:08;;;;;;;4.15;1.50;;;22.90;99.90;;;;;;5069858;28;20099;-79
2021/09/16 12:13:35;;;;;;;2.95;1.30;;;23.10;99.90;;;;;;5079185;28;20395;-79
2021/09/16 12:16:07;;;;;;;3.00;1.30;;;23.00;99.90;;;;;;5075333;28;20029;-78
2021/09/16 12:18:41;;;;;;;3.83;1.30;;;22.80;99.90;;;;;;5066021;28;20530;-79
2021/09/16 12:21:10;;;;;;;2.60;1.30;;;23.00;99.90;;;;;;5070472;28;20020;-79
2021/09/16 12:23:37;;;;;;;1.88;1.17;;;23.10;99.90;;;;;;5040043;28;20025;-79
2021/09/16 12:26:28;;;;;;;1.95;1.70;;;23.20;99.90;;;;;;5078525;28;20061;-78
2021/09/16 12:29:05;;;;;;;2.35;1.50;;;22.90;99.90;;;;;;5073530;28;20082;-79
2021/09/16 12:31:31;;;;;;;2.38;1.10;;;23.20;99.90;;;;;;5070994;28;20035;-79
2021/09/16 12:34:07;;;;;;;4.20;1.63;;;23.30;99.90;;;;;;5072699;28;20028;-78
2021/09/16 12:36:37;;;;;;;2.70;1.30;;;23.50;99.90;;;;;;5072596;28;20029;-79
2021/09/16 12:39:10;;;;;;;4.00;1.25;;;23.30;99.90;;;;;;5075735;28;20046;-79
2021/09/16 12:42:00;;;;;;;2.53;1.40;;;23.30;99.90;;;;;;5076115;28;20035;-80
2021/09/16 12:44:28;;;;;;;4.32;1.48;;;23.30;99.90;;;;;;5074679;28;20051;-79
2021/09/16 12:47:18;;;;;;;4.18;1.30;;;23.00;99.90;;;;;;5081403;28;20064;-79